Time;durP1;ratioP1;P1;durP2;ratioP2;P2;SDS_P1;SDS_P2;PMS_P1;PMS_P2;Temp;Humidity;BMP_temperature;BMP_pressure;BME280_temperature;BME280_humidity;BME280_pressure;Samples;Min_cycle;Max_cycle;Signal;HPM_P1;HPM_P2
2022/01/27 00:00:45;;;;;;;32.83;17.40;;;2.90;77.40;;;1.64;64.31;95684.78;4684005;30;20237;-89
2022/01/27 00:03:26;;;;;;;26.70;15.73;;;3.00;77.50;;;1.71;64.26;95677.38;4685193;30;20216;-89
2022/01/27 00:06:00;;;;;;;29.73;17.35;;;2.90;77.40;;;1.69;64.03;95687.03;4683958;30;20248;-89
2022/01/27 00:08:40;;;;;;;31.00;16.65;;;2.90;77.40;;;1.68;64.01;95687.97;4670922;30;20209;-89
2022/01/27 00:11:13;;;;;;;30.23;16.30;;;2.90;77.40;;;1.71;64.19;95698.91;4684013;30;20260;-89
2022/01/27 00:13:48;;;;;;;31.38;17.35;;;2.90;77.40;;;1.66;64.11;95688.09;4684448;30;20225;-90
2022/01/27 00:16:22;;;;;;;26.40;16.52;;;3.00;77.50;;;1.68;64.16;95685.38;4683915;30;20216;-90
2022/01/27 00:18:51;;;;;;;26.80;16.27;;;3.00;77.40;;;1.74;64.14;95700.44;4683325;30;20742;-90
2022/01/27 00:21:29;;;;;;;27.67;15.35;;;2.90;77.40;;;1.66;63.73;95682.09;4670578;30;20728;-89
2022/01/27 00:23:58;;;;;;;28.20;17.38;;;2.90;77.40;;;1.69;64.17;95687.03;4687678;30;20612;-90
2022/01/27 00:26:26;;;;;;;30.75;17.15;;;2.90;77.40;;;1.71;64.04;95690.31;4673455;30;20252;-89
2022/01/27 00:28:55;;;;;;;30.02;16.58;;;2.90;77.50;;;1.66;64.21;95679.50;4686798;30;20237;-89
2022/01/27 00:31:23;;;;;;;29.88;17.30;;;2.90;77.50;;;1.67;63.97;95683.72;4673055;30;20216;-89
2022/01/27 00:33:53;;;;;;;27.55;15.77;;;2.90;78.20;;;1.72;63.87;95694.53;4701371;30;20245;-89
2022/01/27 00:36:21;;;;;;;25.73;15.38;;;2.90;77.50;;;1.73;64.24;95683.25;4687206;30;20224;-90
2022/01/27 00:38:49;;;;;;;30.92;17.98;;;2.90;77.40;;;1.65;63.76;95676.09;4701014;30;20261;-89
2022/01/27 00:41:19;;;;;;;26.05;15.75;;;2.90;78.20;;;1.74;64.61;95695.25;4673500;30;20219;-89
2022/01/27 00:43:49;;;;;;;27.02;16.10;;;2.90;78.20;;;1.76;64.00;95694.19;4687100;30;20212;-90
2022/01/27 00:46:19;;;;;;;25.17;15.10;;;2.90;77.40;;;1.76;63.99;95693.38;4672292;30;20221;-88
2022/01/27 00:48:49;;;;;;;24.15;15.27;;;2.90;77.50;;;1.71;63.90;95687.72;4701195;30;20232;-89
2022/01/27 00:51:25;;;;;;;30.60;16.83;;;2.90;77.40;;;1.66;64.03;95685.50;4701409;30;20244;-90
2022/01/27 00:56:47;;;;;;;24.05;14.55;;;2.90;78.20;;;1.71;64.47;95677.38;4701150;30;20217;-90
2022/01/27 01:01:52;;;;;;;24.73;15.00;;;2.90;77.50;;;1.70;64.01;95678.34;4700949;30;20216;-89
2022/01/27 01:04:26;;;;;;;28.27;17.23;;;2.90;77.50;;;1.70;64.02;95681.75;4672831;30;20240;-90
2022/01/27 01:06:55;;;;;;;21.17;13.90;;;2.90;77.50;;;1.72;64.06;95686.78;4659312;30;20224;-90
2022/01/27 01:15:07;;;;;;;25.60;15.10;;;2.90;77.50;;;1.74;64.01;95688.31;4686801;30;20232;-89
2022/01/27 01:17:58;;;;;;;21.73;13.82;;;3.00;77.50;;;1.74;64.20;95690.09;4687026;30;20255;-91
2022/01/27 01:20:48;;;;;;;24.08;15.85;;;2.90;77.40;;;1.76;64.08;95696.78;4701115;30;20260;-89
2022/01/27 01:32:09;;;;;;;21.23;14.18;;;2.90;77.30;;;1.71;63.83;95669.63;4685771;30;20221;-89
2022/01/27 01:34:45;;;;;;;23.17;14.75;;;2.90;77.40;;;1.66;63.94;95671.75;4700260;30;20268;-90
2022/01/27 01:37:17;;;;;;;23.48;15.27;;;2.90;77.40;;;1.68;64.05;95675.03;4686546;30;20216;-90
2022/01/27 01:39:45;;;;;;;23.52;14.48;;;2.90;77.40;;;1.63;63.64;95664.22;4672794;30;20248;-89
2022/01/27 01:42:14;;;;;;;28.88;16.52;;;2.80;77.20;;;1.65;64.15;95667.50;4685769;30;20271;-89
2022/01/27 01:44:43;;;;;;;27.48;14.60;;;2.90;77.30;;;1.63;63.82;95672.81;4685981;30;20237;-90
2022/01/27 01:47:11;;;;;;;26.30;16.35;;;2.90;77.40;;;1.60;63.71;95670.47;4672280;30;20221;-91
2022/01/27 01:49:39;;;;;;;24.80;14.07;;;2.90;77.30;;;1.64;63.70;95668.47;4700325;30;20716;-90
2022/01/27 01:52:08;;;;;;;24.08;14.57;;;2.90;77.30;;;1.57;63.87;95652.59;4671768;30;20216;-89
2022/01/27 01:54:36;;;;;;;21.98;13.65;;;2.80;77.20;;;1.61;63.50;95643.66;4686126;30;20268;-89
2022/01/27 01:57:04;;;;;;;23.10;14.13;;;2.80;77.20;;;1.60;63.81;95634.28;4686136;30;20212;-89
2022/01/27 01:59:36;;;;;;;21.85;14.43;;;2.80;77.30;;;1.59;63.82;95635.19;4685056;30;20243;-89
2022/01/27 02:02:04;;;;;;;21.05;13.65;;;2.80;77.20;;;1.62;63.79;95641.91;4685853;30;20646;-89
2022/01/27 02:04:32;;;;;;;24.95;15.93;;;2.70;77.10;;;1.52;63.34;95628.84;4672079;30;20245;-89
2022/01/27 02:07:03;;;;;;;23.75;14.15;;;2.80;77.00;;;1.48;63.45;95630.00;4685414;30;20219;-90
2022/01/27 02:09:50;;;;;;;24.25;14.73;;;2.80;77.00;;;1.51;63.45;95645.31;4685680;30;20295;-90
2022/01/27 02:18:03;;;;;;;23.85;14.63;;;2.70;77.00;;;1.53;63.67;95643.44;4699818;30;20228;-90
2022/01/27 02:20:32;;;;;;;23.27;14.93;;;2.70;77.00;;;1.44;63.56;95627.69;4685196;30;20712;-90
2022/01/27 02:23:04;;;;;;;22.60;14.05;;;2.70;77.00;;;1.45;63.50;95620.75;4671649;30;20227;-90
2022/01/27 02:25:32;;;;;;;24.95;15.40;;;2.70;77.00;;;1.44;63.29;95613.91;4685429;30;20236;-90
2022/01/27 02:28:02;;;;;;;25.90;14.95;;;2.70;77.00;;;1.39;63.63;95613.47;4685071;30;20224;-90
2022/01/27 02:30:30;;;;;;;21.73;13.82;;;2.70;77.00;;;1.47;63.48;95636.16;4684945;30;20280;-90
2022/01/27 02:32:59;;;;;;;21.10;14.20;;;2.70;77.00;;;1.39;63.80;95619.47;4699921;30;20224;-90
2022/01/27 02:35:32;;;;;;;21.98;12.90;;;2.70;77.10;;;1.42;63.49;95628.75;4699959;30;20249;-90
2022/01/27 02:38:00;;;;;;;21.73;13.70;;;2.70;77.10;;;1.42;63.43;95632.13;4699414;30;20215;-89
2022/01/27 02:40:43;;;;;;;21.75;13.25;;;2.70;77.10;;;1.42;63.44;95633.91;4685381;30;20233;-90
2022/01/27 02:43:11;;;;;;;23.08;13.77;;;2.70;77.10;;;1.47;63.51;95631.78;4699434;30;20215;-90
2022/01/27 02:46:06;;;;;;;21.70;13.55;;;2.70;77.10;;;1.49;63.26;95639.41;4670886;30;20331;-90
2022/01/27 02:48:35;;;;;;;24.05;14.30;;;2.70;77.00;;;1.44;63.79;95622.50;4684469;30;20274;-90
2022/01/27 02:51:03;;;;;;;20.95;14.15;;;2.70;77.10;;;1.48;63.38;95635.19;4684689;30;20308;-90
2022/01/27 02:53:34;;;;;;;21.55;13.90;;;2.70;77.10;;;1.52;63.31;95629.66;4699584;30;20308;-90
2022/01/27 02:56:03;;;;;;;23.63;14.48;;;2.70;77.10;;;1.49;63.60;95618.75;4699000;30;20699;-90
2022/01/27 02:58:31;;;;;;;24.40;15.05;;;2.70;77.00;;;1.44;63.32;95619.94;4670825;30;20236;-89
2022/01/27 03:00:59;;;;;;;24.42;14.20;;;2.70;77.00;;;1.45;63.49;95620.75;4698868;30;20216;-89
2022/01/27 03:03:27;;;;;;;22.92;14.23;;;2.70;77.10;;;1.49;63.25;95627.34;4684968;30;20304;-90
2022/01/27 03:05:55;;;;;;;19.50;12.85;;;2.70;77.10;;;1.44;63.67;95606.16;4685002;30;20248;-89
2022/01/27 03:08:23;;;;;;;21.85;13.20;;;2.70;77.20;;;1.52;63.43;95621.09;4699346;30;20677;-90
2022/01/27 03:11:13;;;;;;;23.38;14.80;;;2.70;77.10;;;1.43;63.60;95612.31;4671257;30;20240;-89
2022/01/27 03:13:41;;;;;;;24.85;14.10;;;2.70;77.10;;;1.46;63.75;95619.81;4685194;30;20278;-90
2022/01/27 03:16:09;;;;;;;21.70;13.93;;;2.70;77.10;;;1.40;63.69;95613.34;4684314;30;20286;-90
2022/01/27 03:18:37;;;;;;;22.75;14.70;;;2.70;77.10;;;1.47;63.46;95626.63;4684275;30;20578;-90
2022/01/27 03:21:10;;;;;;;23.88;15.02;;;2.70;77.20;;;1.40;63.64;95618.53;4671182;30;20236;-90
2022/01/27 03:23:39;;;;;;;20.40;14.30;;;2.70;77.10;;;1.42;63.69;95614.03;4670816;30;20239;-91
2022/01/27 03:26:07;;;;;;;22.05;14.00;;;2.60;77.10;;;1.42;63.84;95605.47;4669860;30;20243;-91
2022/01/27 03:28:39;;;;;;;21.60;14.00;;;2.70;77.20;;;1.42;63.66;95595.13;4685225;30;20224;-90
2022/01/27 03:31:07;;;;;;;23.80;15.48;;;2.60;77.30;;;1.41;63.65;95586.53;4670690;30;20209;-89
2022/01/27 03:33:37;;;;;;;23.33;15.65;;;2.60;77.10;;;1.33;63.87;95582.91;4655795;30;20229;-89
2022/01/27 03:36:06;;;;;;;22.00;15.20;;;2.70;77.20;;;1.34;64.02;95587.16;4698056;30;20464;-90
2022/01/27 03:38:34;;;;;;;25.92;14.38;;;2.60;77.20;;;1.40;63.78;95587.50;4684294;30;20240;-90
2022/01/27 03:41:07;;;;;;;24.58;14.82;;;2.60;77.20;;;1.37;64.15;95592.91;4670299;30;20665;-89
2022/01/27 03:43:37;;;;;;;23.60;15.32;;;2.60;77.20;;;1.34;64.05;95569.06;4698260;30;20220;-87
2022/01/27 03:46:06;;;;;;;26.75;15.93;;;2.60;78.00;;;1.28;63.82;95573.75;4684279;30;20217;-90
2022/01/27 03:48:36;;;;;;;24.55;13.90;;;2.60;77.30;;;1.32;64.08;95565.75;4684581;30;20213;-90
2022/01/27 03:51:04;;;;;;;24.27;14.95;;;2.60;78.10;;;1.30;63.95;95580.59;4683867;30;20282;-90
2022/01/27 03:53:32;;;;;;;25.90;16.05;;;2.60;77.30;;;1.26;64.14;95567.88;4698646;30;20251;-90
2022/01/27 03:56:00;;;;;;;27.55;17.08;;;2.60;77.30;;;1.32;64.54;95570.94;4698053;30;20247;-90
2022/01/27 03:58:31;;;;;;;20.65;14.52;;;2.60;77.40;;;1.32;64.35;95587.28;4684404;30;20216;-90
2022/01/27 04:00:58;;;;;;;23.95;15.05;;;2.50;77.30;;;1.24;64.08;95562.00;4684115;30;20217;-89
2022/01/27 04:03:28;;;;;;;23.73;15.35;;;2.50;77.30;;;1.22;64.17;95576.81;4670233;30;20254;-90
2022/01/27 04:06:03;;;;;;;26.55;16.00;;;2.50;78.00;;;1.21;63.78;95575.16;4698243;30;20751;-88
2022/01/27 04:08:31;;;;;;;22.83;15.30;;;2.50;77.40;;;1.20;64.14;95570.94;4684432;30;20212;-90
2022/01/27 04:10:58;;;;;;;22.92;14.23;;;2.50;77.30;;;1.33;64.04;95580.31;4683810;30;20677;-90
2022/01/27 04:13:26;;;;;;;23.17;14.32;;;2.50;77.30;;;1.33;64.03;95573.41;4669184;30;20218;-89
2022/01/27 04:15:55;;;;;;;22.42;13.48;;;2.50;77.30;;;1.32;64.01;95574.34;4670339;30;21351;-89
2022/01/27 04:18:23;;;;;;;22.70;13.07;;;2.50;77.30;;;1.31;63.64;95579.63;4656090;30;20213;-90
2022/01/27 04:20:51;;;;;;;22.27;13.15;;;2.50;77.20;;;1.28;63.30;95573.75;4698169;30;20245;-91
2022/01/27 04:23:19;;;;;;;23.92;14.55;;;2.60;77.10;;;1.27;63.69;95558.38;4669418;30;20220;-90
2022/01/27 04:25:48;;;;;;;20.05;13.13;;;2.50;77.10;;;1.28;63.95;95560.84;4698081;30;20234;-89
2022/01/27 04:28:22;;;;;;;22.58;13.80;;;2.50;77.10;;;1.32;63.78;95579.53;4684160;30;20219;-90
2022/01/27 04:30:53;;;;;;;19.10;12.80;;;2.50;77.10;;;1.30;63.62;95568.47;4683619;30;20242;-90
2022/01/27 04:33:25;;;;;;;20.73;12.85;;;2.50;77.10;;;1.35;63.45;95563.75;4698407;30;20228;-90
2022/01/27 04:35:58;;;;;;;22.48;13.50;;;2.50;77.10;;;1.27;63.19;95559.19;4697825;30;20233;-91
2022/01/27 04:38:39;;;;;;;23.88;12.85;;;2.60;77.00;;;1.28;63.45;95567.75;4684527;30;20224;-90
2022/01/27 04:48:56;;;;;;;21.10;12.80;;;2.50;77.00;;;1.25;63.51;95560.25;4685911;30;20276;-90
2022/01/27 04:51:24;;;;;;;20.95;13.18;;;2.50;76.80;;;1.17;63.15;95558.25;4684611;30;20217;-90
2022/01/27 04:54:03;;;;;;;20.98;13.40;;;2.50;76.70;;;1.12;63.51;95565.53;4683532;30;20245;-89
2022/01/27 04:56:35;;;;;;;20.73;13.23;;;2.50;76.70;;;0.98;63.55;95564.00;4698161;30;20290;-90
2022/01/27 04:59:11;;;;;;;19.10;12.63;;;2.40;76.60;;;0.99;63.47;95576.00;4698072;30;20245;-90
2022/01/27 05:01:48;;;;;;;20.83;12.38;;;2.30;76.70;;;0.92;63.60;95574.81;4683173;30;20216;-90
2022/01/27 05:04:19;;;;;;;19.38;12.20;;;2.30;76.70;;;0.89;63.43;95581.03;4685250;30;20229;-90
2022/01/27 05:06:53;;;;;;;19.25;11.68;;;2.30;76.70;;;0.79;63.66;95555.06;4684110;30;20247;-90
2022/01/27 05:09:23;;;;;;;17.35;10.43;;;2.20;76.60;;;0.78;63.56;95547.41;4701391;30;20268;-90
2022/01/27 05:12:00;;;;;;;20.17;11.75;;;2.20;76.60;;;0.76;63.53;95533.81;4672346;30;20215;-90
2022/01/27 05:14:29;;;;;;;20.95;11.95;;;2.10;76.60;;;0.67;63.52;95537.91;4687110;30;20229;-90
2022/01/27 05:16:56;;;;;;;20.88;11.82;;;2.00;76.50;;;0.67;63.56;95557.75;4686404;30;20217;-90
2022/01/27 05:19:26;;;;;;;17.40;11.48;;;2.10;76.50;;;0.62;63.61;95552.91;4701231;30;20247;-91
2022/01/27 05:21:55;;;;;;;18.42;11.88;;;2.10;76.60;;;0.63;63.52;95558.00;4673088;30;20227;-92
2022/01/27 05:24:24;;;;;;;19.77;13.20;;;2.00;76.60;;;0.54;63.69;95565.56;4686455;30;20228;-90
2022/01/27 05:26:53;;;;;;;18.80;11.35;;;2.00;76.60;;;0.45;63.62;95549.84;4672591;30;20347;-90
2022/01/27 05:29:24;;;;;;;17.60;10.43;;;1.90;76.60;;;0.47;63.61;95558.28;4700364;30;20236;-92
2022/01/27 05:32:05;;;;;;;16.67;10.10;;;1.90;76.60;;;0.40;63.62;95535.63;4674149;30;20315;-91
2022/01/27 05:34:56;;;;;;;17.65;11.40;;;1.80;76.50;;;0.32;63.59;95511.22;4665116;30;20264;-91
2022/01/27 05:37:24;;;;;;;18.65;12.13;;;1.80;76.50;;;0.29;63.78;95518.34;4658126;30;20213;-91
2022/01/27 05:39:52;;;;;;;16.85;10.95;;;1.80;76.50;;;0.32;63.87;95549.09;4671862;30;20319;-90
2022/01/27 05:42:20;;;;;;;17.00;11.65;;;1.80;76.60;;;0.24;63.81;95535.94;4700868;30;20225;-91
2022/01/27 05:44:52;;;;;;;19.08;11.52;;;1.70;76.60;;;0.13;64.03;95521.25;4672209;30;20265;-90
2022/01/27 05:47:20;;;;;;;18.52;11.55;;;1.70;76.70;;;0.13;63.96;95513.50;4685881;30;20217;-90
2022/01/27 05:49:54;;;;;;;16.33;10.30;;;1.60;76.60;;;0.09;63.72;95512.91;4686410;30;20264;-91
2022/01/27 05:52:25;;;;;;;15.68;10.50;;;1.60;76.60;;;0.08;63.80;95519.00;4686080;30;20213;-91
2022/01/27 05:55:00;;;;;;;18.10;10.82;;;1.50;76.50;;;-0.01;63.95;95507.59;4686767;30;20244;-91
2022/01/27 05:57:27;;;;;;;16.33;11.05;;;1.50;76.60;;;0.00;64.04;95508.44;4672155;30;20217;-92
2022/01/27 05:59:57;;;;;;;19.45;12.00;;;1.40;76.60;;;-0.07;64.17;95502.88;4672158;30;20262;-90
2022/01/27 06:02:28;;;;;;;20.55;12.70;;;1.40;76.60;;;-0.15;64.60;95501.81;4671481;30;20308;-91
2022/01/27 06:04:56;;;;;;;21.38;11.95;;;1.40;76.80;;;-0.17;64.69;95494.19;4686087;30;20237;-90
2022/01/27 06:07:25;;;;;;;22.98;13.02;;;1.40;76.90;;;-0.14;64.65;95495.72;4686127;30;20251;-91
2022/01/27 06:09:57;;;;;;;19.98;12.23;;;1.30;76.90;;;-0.10;64.78;95494.56;4700056;30;20239;-89
2022/01/27 06:12:26;;;;;;;19.95;12.63;;;1.30;76.90;;;-0.19;64.97;95486.53;4686082;30;20212;-90
2022/01/27 06:14:54;;;;;;;19.30;11.75;;;1.30;77.10;;;-0.20;64.72;95481.50;4671531;30;20232;-90
2022/01/27 06:17:28;;;;;;;21.60;11.85;;;1.30;77.20;;;-0.19;64.96;95485.75;4686015;30;20240;-90
2022/01/27 06:19:57;;;;;;;18.08;11.52;;;1.30;77.10;;;-0.15;64.63;95482.00;4654976;30;20336;-90
2022/01/27 06:22:26;;;;;;;21.58;12.52;;;1.30;77.10;;;-0.13;64.17;95485.28;4671648;30;20735;-90
2022/01/27 06:24:54;;;;;;;18.90;12.00;;;1.30;77.00;;;-0.18;64.56;95485.63;4699873;30;20236;-90
2022/01/27 06:27:23;;;;;;;17.25;11.25;;;1.30;77.10;;;-0.17;64.51;95489.84;4671306;30;20677;-90
2022/01/27 06:29:52;;;;;;;18.58;11.57;;;1.20;77.00;;;-0.22;64.54;95484.22;4670721;30;20279;-90
2022/01/27 06:32:19;;;;;;;16.85;11.48;;;1.20;77.00;;;-0.20;64.90;95484.91;4671981;30;20313;-91
2022/01/27 06:34:48;;;;;;;20.73;12.23;;;1.20;77.00;;;-0.19;64.66;95483.97;4672014;30;20280;-91
2022/01/27 06:37:17;;;;;;;19.67;12.48;;;1.20;77.10;;;-0.27;64.95;95467.41;4689200;30;20288;-90
2022/01/27 06:39:44;;;;;;;20.42;12.48;;;1.20;77.10;;;-0.18;64.98;95484.81;4686102;30;20299;-90
2022/01/27 06:42:12;;;;;;;24.10;12.85;;;1.20;77.20;;;-0.15;64.63;95491.50;4701306;30;20225;-91
2022/01/27 06:44:41;;;;;;;20.98;12.13;;;1.20;77.20;;;-0.10;64.69;95489.41;4684576;30;20244;-90
2022/01/27 06:47:12;;;;;;;16.92;11.05;;;1.20;77.20;;;-0.16;64.68;95488.06;4675282;30;20224;-90
2022/01/27 06:49:42;;;;;;;20.15;12.63;;;1.20;77.30;;;-0.21;64.74;95478.13;4668808;30;20275;-90
2022/01/27 06:52:10;;;;;;;19.48;12.13;;;1.20;77.30;;;-0.14;64.29;95493.94;4656170;30;20216;-90
2022/01/27 06:54:41;;;;;;;21.52;12.68;;;1.20;77.30;;;-0.15;64.62;95486.34;4673433;30;20248;-90
2022/01/27 06:57:13;;;;;;;20.67;12.15;;;1.20;78.10;;;-0.14;64.76;95486.22;4675858;30;20215;-91
2022/01/27 06:59:54;;;;;;;17.10;10.60;;;1.20;77.20;;;-0.15;64.42;95476.84;4694807;30;20259;-90
2022/01/27 07:02:24;;;;;;;19.45;11.77;;;1.20;77.20;;;-0.14;64.91;95496.53;4670346;30;20605;-91
2022/01/27 07:04:58;;;;;;;21.15;12.50;;;1.20;77.30;;;-0.15;64.70;95487.16;4669412;30;20400;-90
2022/01/27 07:07:26;;;;;;;20.65;12.00;;;1.20;77.30;;;-0.13;64.79;95484.47;4683910;30;20673;-91
2022/01/27 07:09:56;;;;;;;20.25;12.40;;;1.20;77.30;;;-0.11;64.73;95478.28;4669532;30;20235;-90
2022/01/27 07:12:23;;;;;;;21.77;12.80;;;1.20;77.40;;;-0.11;65.05;95470.53;4675753;30;20228;-91
2022/01/27 07:14:58;;;;;;;19.15;12.02;;;1.20;77.50;;;-0.08;65.18;95461.75;4671008;30;20328;-91
2022/01/27 07:17:31;;;;;;;19.95;12.60;;;1.20;77.50;;;-0.01;65.06;95452.63;4685813;30;20232;-90
2022/01/27 07:20:00;;;;;;;20.75;12.60;;;1.20;77.50;;;-0.04;64.90;95433.06;4670734;30;20271;-91
2022/01/27 07:22:32;;;;;;;20.85;12.60;;;1.30;77.60;;;0.03;64.87;95435.19;4684571;30;20662;-91
2022/01/27 07:25:01;;;;;;;19.88;13.15;;;1.30;77.60;;;0.03;64.96;95430.03;4684823;30;20784;-91
2022/01/27 07:27:31;;;;;;;19.33;12.30;;;1.30;77.70;;;0.11;65.06;95419.94;4684582;30;20217;-90
2022/01/27 07:29:59;;;;;;;19.65;12.57;;;1.30;77.70;;;0.11;64.78;95415.63;4659843;30;20236;-91
2022/01/27 07:32:29;;;;;;;21.88;13.13;;;1.40;77.70;;;0.20;64.69;95413.28;4668995;30;20216;-91
2022/01/27 07:35:02;;;;;;;20.45;11.35;;;1.40;77.70;;;0.26;64.34;95403.31;4660779;30;20260;-91
2022/01/27 07:37:37;;;;;;;19.88;12.35;;;1.40;77.70;;;0.34;64.56;95412.22;4684400;30;20247;-90
2022/01/27 07:40:11;;;;;;;21.13;11.63;;;1.50;77.70;;;0.37;64.10;95409.44;4685581;30;20669;-90
2022/01/27 07:42:40;;;;;;;19.63;12.48;;;1.50;77.60;;;0.43;64.48;95391.72;4685016;30;20217;-91
2022/01/27 07:45:11;;;;;;;19.20;12.10;;;1.50;77.50;;;0.52;64.10;95392.75;4682735;30;20237;-89
2022/01/27 07:47:41;;;;;;;20.08;13.13;;;1.60;77.60;;;0.55;64.28;95382.22;4702478;30;20234;-89
2022/01/27 07:50:10;;;;;;;22.27;13.32;;;1.70;77.60;;;0.63;64.18;95387.59;4675971;30;20260;-90
2022/01/27 07:52:38;;;;;;;21.48;12.82;;;1.70;77.60;;;0.72;64.00;95398.97;4699712;30;20213;-90
2022/01/27 07:55:06;;;;;;;19.90;12.52;;;1.80;77.70;;;0.69;63.83;95381.13;4698681;30;20697;-90
2022/01/27 07:57:35;;;;;;;20.58;12.32;;;1.90;77.70;;;0.90;64.39;95391.53;4684386;30;20213;-90
2022/01/27 08:00:05;;;;;;;21.23;12.32;;;1.90;77.70;;;0.88;64.03;95367.63;4683664;30;20303;-88
2022/01/27 08:02:41;;;;;;;20.67;12.85;;;1.90;77.70;;;0.99;63.67;95376.25;4684197;30;20288;-89
2022/01/27 08:05:09;;;;;;;17.95;11.43;;;2.10;77.70;;;1.09;63.84;95372.84;4670150;30;20771;-90
2022/01/27 08:07:38;;;;;;;17.00;10.70;;;2.10;77.60;;;1.15;63.77;95357.78;4655895;30;20630;-90
2022/01/27 08:10:11;;;;;;;18.88;11.32;;;2.20;77.60;;;1.18;63.57;95354.97;4684118;30;20251;-88
2022/01/27 08:12:43;;;;;;;19.55;12.20;;;2.20;77.60;;;1.28;63.12;95359.28;4670174;30;20673;-90
2022/01/27 08:15:13;;;;;;;18.25;11.60;;;2.30;77.40;;;1.28;63.35;95348.09;4684502;30;20240;-89
2022/01/27 08:17:42;;;;;;;17.17;11.13;;;2.40;77.40;;;1.33;63.17;95347.75;4670444;30;20320;-89
2022/01/27 08:20:11;;;;;;;17.20;10.90;;;2.40;77.30;;;1.49;62.66;95363.66;4684298;30;20539;-89
2022/01/27 08:22:40;;;;;;;16.08;10.88;;;2.40;77.30;;;1.55;63.03;95354.56;4684234;30;20221;-89
2022/01/27 08:25:08;;;;;;;18.65;10.60;;;2.50;77.40;;;1.68;62.84;95349.22;4684387;30;20319;-88
2022/01/27 08:27:42;;;;;;;16.38;10.95;;;2.60;77.50;;;1.75;62.84;95346.00;4698455;30;20212;-88
2022/01/27 08:30:11;;;;;;;19.55;11.93;;;2.70;77.50;;;1.86;62.17;95337.34;4684238;30;20240;-87
2022/01/27 08:32:56;;;;;;;18.23;11.55;;;2.70;77.30;;;1.94;61.93;95338.47;4684350;30;20584;-88
2022/01/27 08:35:25;;;;;;;17.20;10.65;;;2.80;77.20;;;2.09;62.50;95332.03;4686077;30;20236;-88
2022/01/27 08:37:53;;;;;;;17.55;10.82;;;2.90;77.30;;;2.23;62.05;95341.22;4662710;30;20674;-88
2022/01/27 08:40:21;;;;;;;19.08;10.98;;;3.00;77.20;;;2.18;61.45;95330.44;4662025;30;20253;-88
2022/01/27 08:43:07;;;;;;;17.70;10.77;;;3.10;76.90;;;2.28;60.92;95314.94;4685411;30;20319;-88
2022/01/27 08:45:38;;;;;;;15.93;9.90;;;3.20;76.70;;;2.34;61.05;95310.06;4700302;30;20237;-88
2022/01/27 08:48:09;;;;;;;16.52;9.73;;;3.20;76.60;;;2.49;60.94;95310.53;4702340;30;20235;-88
2022/01/27 08:50:40;;;;;;;15.88;10.05;;;3.30;76.60;;;2.61;61.04;95305.25;4718774;30;20646;-88
2022/01/27 08:53:08;;;;;;;13.13;9.30;;;3.40;76.70;;;2.64;60.87;95284.28;4707178;30;20243;-89
2022/01/27 08:55:36;;;;;;;16.45;10.65;;;3.50;76.50;;;2.70;59.16;95281.13;4685530;30;20229;-88
2022/01/27 08:58:04;;;;;;;15.43;9.90;;;3.60;76.00;;;2.76;59.87;95275.41;4700841;30;20220;-89
2022/01/27 09:00:32;;;;;;;13.75;9.20;;;3.60;76.00;;;2.85;59.65;95284.97;4681537;30;20241;-88
2022/01/27 09:03:00;;;;;;;14.70;10.02;;;3.70;75.80;;;2.98;58.76;95292.47;4707688;30;20319;-88
2022/01/27 09:05:28;;;;;;;15.93;9.73;;;3.80;75.60;;;3.01;57.93;95292.19;4672290;30;20291;-88
2022/01/27 09:08:01;;;;;;;15.75;9.10;;;3.90;75.20;;;3.07;58.67;95285.66;4700642;30;20582;-89
2022/01/27 09:10:32;;;;;;;14.50;9.23;;;3.90;75.40;;;3.19;58.57;95292.34;4686838;30;20237;-88
2022/01/27 09:13:04;;;;;;;16.23;9.50;;;4.00;75.40;;;3.27;58.63;95286.50;4690087;30;20308;-87
2022/01/27 09:15:34;;;;;;;13.48;9.05;;;4.10;75.20;;;3.44;57.98;95286.75;4696889;30;20739;-87
2022/01/27 09:18:01;;;;;;;13.15;8.93;;;4.10;75.00;;;3.55;57.78;95294.34;4686289;30;20295;-88
2022/01/27 09:20:30;;;;;;;11.50;8.02;;;4.20;75.10;;;3.61;58.65;95282.63;4700700;30;20244;-86
2022/01/27 09:23:00;;;;;;;13.77;8.73;;;4.40;75.40;;;3.81;58.38;95294.59;4686191;30;20221;-86
2022/01/27 09:25:40;;;;;;;11.65;7.65;;;4.40;75.10;;;3.83;57.14;95282.31;4686974;30;20323;-86
2022/01/27 09:28:08;;;;;;;12.35;7.85;;;4.60;75.00;;;3.96;57.48;95278.56;4686843;30;20625;-86
2022/01/27 09:30:37;;;;;;;12.95;8.10;;;4.60;75.00;;;4.11;56.02;95286.72;4672314;30;20720;-86
2022/01/27 09:33:05;;;;;;;13.32;8.10;;;4.70;74.60;;;4.26;55.66;95287.06;4686761;30;20219;-86
2022/01/27 09:35:33;;;;;;;10.82;7.38;;;4.80;73.90;;;4.31;55.15;95282.28;4671522;30;20250;-85
2022/01/27 09:38:02;;;;;;;10.65;7.50;;;4.90;74.00;;;4.49;54.39;95290.94;4692524;30;20221;-85
2022/01/27 09:40:33;;;;;;;11.25;7.25;;;5.00;73.40;;;4.67;54.68;95300.53;4683187;30;20245;-85
2022/01/27 09:43:03;;;;;;;11.50;7.93;;;5.10;73.70;;;4.84;53.23;95300.72;4697798;30;20279;-85
2022/01/27 09:45:36;;;;;;;11.63;7.50;;;5.20;72.70;;;4.94;51.60;95297.09;4670640;30;20332;-86
2022/01/27 09:48:13;;;;;;;11.23;7.45;;;5.40;71.90;;;5.07;51.09;95290.72;4669003;30;20229;-88
2022/01/27 09:51:00;;;;;;;11.13;7.45;;;5.50;71.40;;;5.15;50.93;95302.97;4678557;30;20237;-87
2022/01/27 09:53:29;;;;;;;10.60;7.40;;;5.70;71.20;;;5.23;48.88;95303.03;4700765;30;20247;-86
2022/01/27 09:55:57;;;;;;;9.98;7.05;;;5.80;70.40;;;5.28;51.36;95283.44;4686766;30;20259;-87
2022/01/27 09:58:24;;;;;;;13.48;7.68;;;5.80;71.00;;;5.32;48.28;95298.72;4696504;30;20213;-87
2022/01/27 10:00:52;;;;;;;12.57;8.13;;;5.90;69.40;;;5.35;50.43;95294.06;4684792;30;20733;-87
2022/01/27 10:03:20;;;;;;;11.60;7.95;;;6.00;70.40;;;5.34;49.92;95302.00;4685047;30;20225;-86
2022/01/27 10:05:47;;;;;;;11.93;7.95;;;6.10;70.00;;;5.39;49.33;95286.75;4702413;30;20244;-87
2022/01/27 10:08:19;;;;;;;13.93;8.13;;;6.10;69.60;;;5.38;49.85;95291.16;4705144;30;20233;-87
2022/01/27 10:10:50;;;;;;;11.18;7.50;;;6.10;69.20;;;5.35;50.30;95281.03;4684084;30;20331;-88
2022/01/27 10:13:39;;;;;;;11.85;7.88;;;6.20;69.40;;;5.29;49.70;95281.66;4683437;30;20699;-87
2022/01/27 10:16:07;;;;;;;11.20;7.30;;;6.20;69.40;;;5.28;48.94;95277.41;4669489;30;20393;-87
2022/01/27 10:18:41;;;;;;;12.30;7.22;;;6.10;68.90;;;5.26;49.30;95280.16;4686635;30;20448;-87
2022/01/27 10:21:12;;;;;;;10.35;7.45;;;6.10;68.70;;;5.28;49.01;95267.84;4697981;30;20255;-88
2022/01/27 10:23:41;;;;;;;13.70;8.50;;;6.10;68.50;;;5.24;48.37;95255.28;4686310;30;20290;-87
2022/01/27 10:26:29;;;;;;;10.63;7.55;;;6.10;68.10;;;5.35;49.89;95286.25;4685258;30;20640;-88
2022/01/27 10:29:13;;;;;;;12.80;8.45;;;6.10;68.90;;;5.34;48.18;95258.59;4686669;30;20232;-89
2022/01/27 10:31:42;;;;;;;11.20;7.72;;;6.20;68.40;;;5.43;48.79;95265.50;4699628;30;20217;-87
2022/01/27 10:34:11;;;;;;;13.05;8.45;;;6.20;68.60;;;5.43;46.96;95265.50;4685440;30;20250;-88
2022/01/27 10:36:44;;;;;;;11.95;8.35;;;6.20;67.40;;;5.49;48.82;95258.06;4699466;30;20264;-89
2022/01/27 10:39:15;;;;;;;11.85;8.15;;;6.20;68.00;;;5.49;48.01;95256.25;4671703;30;20261;-90
2022/01/27 10:42:00;;;;;;;11.75;7.72;;;6.20;67.70;;;5.56;48.18;95248.69;4699780;30;20244;-89
2022/01/27 10:44:44;;;;;;;13.93;8.20;;;6.20;67.80;;;5.60;48.13;95240.41;4684693;30;20701;-89
2022/01/27 10:47:22;;;;;;;12.82;7.60;;;6.30;67.80;;;5.55;48.35;95227.03;4699819;30;20216;-89
2022/01/27 10:52:35;;;;;;;11.43;7.68;;;6.30;67.80;;;5.67;48.62;95237.22;4685393;30;20267;-89
2022/01/27 10:55:17;;;;;;;12.38;8.05;;;6.40;67.90;;;5.66;48.08;95218.16;4685816;30;20233;-89
2022/01/27 10:57:50;;;;;;;11.90;7.85;;;6.40;67.70;;;5.70;48.52;95222.09;4685625;30;20747;-88
2022/01/27 11:00:21;;;;;;;13.02;8.27;;;6.40;67.90;;;5.70;46.84;95216.06;4670851;30;20236;-89
2022/01/27 11:02:58;;;;;;;11.75;8.13;;;6.50;66.90;;;5.65;48.36;95210.50;4670769;30;20205;-89
2022/01/27 11:05:33;;;;;;;12.98;8.07;;;6.50;67.30;;;5.57;47.43;95196.47;4688820;30;20263;-90
2022/01/27 11:08:03;;;;;;;14.10;7.90;;;6.50;66.90;;;5.59;47.92;95202.34;4688646;30;20208;-89
2022/01/27 11:10:30;;;;;;;13.15;8.32;;;6.50;67.10;;;5.60;46.19;95183.19;4686076;30;20291;-89
2022/01/27 11:12:59;;;;;;;11.65;7.43;;;6.40;66.70;;;5.73;46.72;95182.75;4669863;30;20303;-89